createdAt,value
2018-07-20T00:00:35.439Z,980.7
2018-07-20T00:01:39.177Z,980.7
2018-07-20T00:02:40.760Z,980.8
2018-07-20T00:03:41.906Z,980.8
2018-07-20T00:04:44.111Z,980.7
2018-07-20T00:05:45.799Z,980.8
2018-07-20T00:06:46.975Z,980.8
2018-07-20T00:07:48.448Z,980.8
2018-07-20T00:08:52.099Z,980.7
2018-07-20T00:09:53.250Z,980.8
2018-07-20T00:10:54.414Z,980.7
2018-07-20T00:11:55.602Z,980.7
2018-07-20T00:12:57.698Z,980.8
2018-07-20T00:13:59.960Z,980.6
2018-07-20T00:15:01.184Z,980.8
2018-07-20T00:16:02.480Z,980.7
2018-07-20T00:17:03.630Z,980.8
2018-07-20T00:18:04.855Z,980.8
2018-07-20T00:19:06.231Z,980.8
2018-07-20T00:20:07.422Z,980.8
2018-07-20T00:21:08.570Z,980.8
2018-07-20T00:22:09.785Z,980.8
2018-07-20T00:23:10.983Z,980.7
2018-07-20T00:24:12.338Z,980.7
2018-07-20T00:25:13.510Z,980.7
2018-07-20T00:26:14.699Z,980.7
2018-07-20T00:27:16.018Z,980.7
2018-07-20T00:28:17.695Z,980.6
2018-07-20T00:29:18.861Z,980.7
2018-07-20T00:30:20.034Z,980.7
2018-07-20T00:31:21.299Z,980.7
2018-07-20T00:32:22.451Z,980.8
2018-07-20T00:33:23.622Z,980.7
2018-07-20T00:34:24.815Z,980.7
2018-07-20T00:35:25.970Z,980.7
2018-07-20T00:36:27.141Z,980.7
2018-07-20T00:37:28.503Z,980.7
2018-07-20T00:38:31.911Z,980.7
2018-07-20T00:39:33.071Z,980.7
2018-07-20T00:40:34.354Z,980.6
2018-07-20T00:41:35.673Z,980.6
2018-07-20T00:42:36.809Z,980.7
2018-07-20T00:43:39.209Z,980.6
2018-07-20T00:44:40.375Z,980.6
2018-07-20T00:45:41.538Z,980.6
2018-07-20T00:46:42.714Z,980.6
2018-07-20T00:47:43.865Z,980.6
2018-07-20T00:48:45.058Z,980.6
2018-07-20T00:49:46.225Z,980.5
2018-07-20T00:50:47.374Z,980.6
2018-07-20T00:51:48.519Z,980.5
2018-07-20T00:52:49.670Z,980.6
2018-07-20T00:53:50.876Z,980.6
2018-07-20T00:54:52.038Z,980.6
2018-07-20T00:55:53.188Z,980.5
2018-07-20T00:56:54.365Z,980.6
2018-07-20T00:57:55.607Z,980.6
2018-07-20T00:58:58.480Z,980.6
2018-07-20T00:59:59.704Z,980.5
2018-07-20T01:01:00.855Z,980.5
2018-07-20T01:02:03.249Z,980.2
2018-07-20T01:03:04.391Z,980.5
2018-07-20T01:04:05.597Z,980.5
2018-07-20T01:05:06.795Z,980.5
2018-07-20T01:06:08.999Z,980.5
2018-07-20T01:07:10.147Z,980.5
2018-07-20T01:08:11.404Z,980.5
2018-07-20T01:09:12.605Z,980.5
2018-07-20T01:10:13.821Z,980.5
2018-07-20T01:11:14.996Z,980.5
2018-07-20T01:12:16.264Z,980.5
2018-07-20T01:13:17.544Z,980.5
2018-07-20T01:14:19.013Z,980.5
2018-07-20T01:15:20.202Z,980.5
2018-07-20T01:16:21.356Z,980.5
2018-07-20T01:17:22.500Z,980.6
2018-07-20T01:18:23.647Z,980.5
2018-07-20T01:19:24.818Z,980.5
2018-07-20T01:20:26.044Z,980.5
2018-07-20T01:21:27.242Z,980.5
2018-07-20T01:22:28.414Z,980.5
2018-07-20T01:23:29.580Z,980.5
2018-07-20T01:24:30.784Z,980.5
2018-07-20T01:25:31.957Z,980.5
2018-07-20T01:26:33.094Z,980.5
2018-07-20T01:27:34.262Z,980.5
2018-07-20T01:28:35.486Z,980.5
2018-07-20T01:29:37.183Z,980.4
2018-07-20T01:30:38.355Z,980.4
2018-07-20T01:31:39.737Z,980.4
2018-07-20T01:32:40.883Z,980.4
2018-07-20T01:33:42.062Z,980.4
2018-07-20T01:34:43.319Z,980.3
2018-07-20T01:35:44.826Z,980.4
2018-07-20T01:36:45.991Z,980.3
2018-07-20T01:37:47.133Z,980.4
2018-07-20T01:38:48.314Z,980.4
2018-07-20T01:39:49.748Z,980.4
2018-07-20T01:40:50.902Z,980.4
2018-07-20T01:41:52.212Z,980.4
2018-07-20T01:42:53.363Z,980.5
2018-07-20T01:43:54.521Z,980.4
2018-07-20T01:44:55.761Z,980.4
2018-07-20T01:45:56.919Z,980.4
2018-07-20T01:46:58.097Z,980.4
2018-07-20T01:47:59.250Z,980.4
2018-07-20T01:49:00.402Z,980.4
2018-07-20T01:50:01.626Z,980.4
2018-07-20T01:51:02.778Z,980.4
2018-07-20T01:52:05.255Z,980.4
2018-07-20T01:53:06.467Z,980.3
2018-07-20T01:54:07.675Z,980.4
2018-07-20T01:55:09.164Z,980.4
2018-07-20T01:56:10.318Z,980.4
2018-07-20T01:57:11.475Z,980.4
2018-07-20T01:58:17.575Z,980.4
2018-07-20T01:59:21.191Z,980.4
2018-07-20T02:00:22.749Z,980.3
2018-07-20T02:01:23.935Z,980.3
2018-07-20T02:02:26.109Z,980.2
2018-07-20T02:03:27.278Z,980.4
2018-07-20T02:04:28.449Z,980.3
2018-07-20T02:05:29.679Z,980.3
2018-07-20T02:06:30.834Z,980.3
2018-07-20T02:07:32.254Z,980.3
2018-07-20T02:08:33.418Z,980.3
2018-07-20T02:09:34.570Z,980.3
2018-07-20T02:10:35.799Z,980.3
2018-07-20T02:11:36.944Z,980.3
2018-07-20T02:12:38.108Z,980.3
2018-07-20T02:13:39.250Z,980.3
2018-07-20T02:14:40.417Z,980.2
2018-07-20T02:15:41.813Z,980.3
2018-07-20T02:16:42.986Z,980.3
2018-07-20T02:17:44.139Z,980.2
2018-07-20T02:18:45.322Z,980.3
2018-07-20T02:19:46.510Z,980.2
2018-07-20T02:20:47.779Z,980.3
2018-07-20T02:21:48.933Z,980.2
2018-07-20T02:22:50.295Z,980.3
2018-07-20T02:23:51.453Z,980.3
2018-07-20T02:24:52.633Z,980.2
2018-07-20T02:25:53.854Z,980.2
2018-07-20T02:26:55.050Z,980.2
2018-07-20T02:27:56.336Z,979.9
2018-07-20T02:28:57.485Z,980.1
2018-07-20T02:29:58.714Z,980.2
2018-07-20T02:31:00.239Z,980.2
2018-07-20T02:32:01.440Z,980.1
2018-07-20T02:33:02.623Z,980.1
2018-07-20T02:34:03.797Z,980.2
2018-07-20T02:35:04.943Z,980.2
2018-07-20T02:36:06.161Z,980.1
2018-07-20T02:37:07.587Z,980.2
2018-07-20T02:38:08.754Z,980.1
2018-07-20T02:39:10.179Z,980.1
2018-07-20T02:40:11.378Z,980.1
2018-07-20T02:41:12.594Z,980.1
2018-07-20T02:42:13.744Z,980.1
2018-07-20T02:43:14.932Z,980.1
2018-07-20T02:44:16.094Z,980.2
2018-07-20T02:45:17.263Z,980.1
2018-07-20T02:46:18.691Z,980.1
2018-07-20T02:47:19.951Z,980.1
2018-07-20T02:48:21.114Z,980
2018-07-20T02:49:22.317Z,980
2018-07-20T02:50:23.494Z,980
2018-07-20T02:51:24.692Z,980
2018-07-20T02:52:25.895Z,980
2018-07-20T02:53:27.095Z,980.1
2018-07-20T02:54:28.343Z,980
2018-07-20T02:55:30.361Z,980
2018-07-20T02:56:31.663Z,979.9
2018-07-20T02:57:32.833Z,980
2018-07-20T02:58:33.984Z,980
2018-07-20T02:59:35.167Z,980
2018-07-20T03:00:37.238Z,980
2018-07-20T03:01:38.999Z,980
2018-07-20T03:02:40.145Z,980
2018-07-20T03:03:41.303Z,979.9
2018-07-20T03:04:42.446Z,980
2018-07-20T03:05:43.620Z,980
2018-07-20T03:06:44.799Z,980
2018-07-20T03:07:45.985Z,979.9
2018-07-20T03:08:49.583Z,979.9
2018-07-20T03:09:50.941Z,979.9
2018-07-20T03:10:52.117Z,979.9
2018-07-20T03:11:53.602Z,980
2018-07-20T03:12:54.745Z,980
2018-07-20T03:13:55.944Z,979.9
2018-07-20T03:14:57.330Z,980
2018-07-20T03:15:58.490Z,980
2018-07-20T03:16:59.686Z,980
2018-07-20T03:18:00.885Z,979.9
2018-07-20T03:19:02.079Z,980
2018-07-20T03:20:03.249Z,979.9
2018-07-20T03:21:04.476Z,980
2018-07-20T03:22:05.808Z,979.9
2018-07-20T03:23:06.955Z,979.9
2018-07-20T03:24:08.118Z,979.7
2018-07-20T03:25:09.274Z,980
2018-07-20T03:26:10.446Z,979.9
2018-07-20T03:27:11.666Z,979.8
2018-07-20T03:28:12.820Z,979.9
2018-07-20T03:29:13.966Z,979.9
2018-07-20T03:30:15.146Z,980
2018-07-20T03:31:16.305Z,980
2018-07-20T03:32:17.822Z,979.9
2018-07-20T03:33:19.098Z,979.8
2018-07-20T03:34:20.274Z,980
2018-07-20T03:35:21.655Z,980
2018-07-20T03:36:22.810Z,979.9
2018-07-20T03:37:24.009Z,979.9
2018-07-20T03:38:25.238Z,979.9
2018-07-20T03:39:26.649Z,979.9
2018-07-20T03:40:27.797Z,979.9
2018-07-20T03:41:28.979Z,979.9
2018-07-20T03:42:30.159Z,979.9
2018-07-20T03:43:31.362Z,979.9
2018-07-20T03:44:32.535Z,980
2018-07-20T03:45:33.689Z,979.9
2018-07-20T03:46:34.884Z,979.9
2018-07-20T03:47:36.111Z,979.9
2018-07-20T03:48:37.292Z,979.9
2018-07-20T03:49:38.459Z,979.9
2018-07-20T03:50:39.605Z,979.9
2018-07-20T03:51:40.780Z,979.9
2018-07-20T03:52:41.973Z,979.9
2018-07-20T03:53:43.138Z,979.8
2018-07-20T03:54:44.364Z,979.9
2018-07-20T03:55:45.575Z,979.9
2018-07-20T03:56:46.755Z,979.9
2018-07-20T03:57:47.955Z,979.8
2018-07-20T03:58:49.134Z,979.8
2018-07-20T03:59:50.274Z,979.8
2018-07-20T04:00:53.887Z,979.7
2018-07-20T04:01:56.342Z,979.8
2018-07-20T04:02:57.808Z,979.8
2018-07-20T04:03:58.952Z,979.7
2018-07-20T04:05:00.095Z,979.8
2018-07-20T04:06:01.255Z,979.8
2018-07-20T04:07:02.419Z,979.8
2018-07-20T04:08:03.646Z,979.9
2018-07-20T04:09:04.803Z,979.9
2018-07-20T04:10:06.002Z,979.8
2018-07-20T04:11:07.154Z,979.8
2018-07-20T04:12:08.318Z,979.8
2018-07-20T04:13:09.493Z,979.8
2018-07-20T04:14:10.732Z,979.8
2018-07-20T04:15:11.907Z,979.9
2018-07-20T04:16:13.045Z,979.8
2018-07-20T04:17:14.226Z,979.8
2018-07-20T04:18:15.418Z,979.8
2018-07-20T04:19:16.566Z,979.9
2018-07-20T04:20:17.714Z,979.9
2018-07-20T04:21:18.890Z,979.8
2018-07-20T04:22:20.050Z,979.8
2018-07-20T04:23:21.567Z,979.8
2018-07-20T04:24:22.774Z,979.8
2018-07-20T04:25:23.929Z,979.8
2018-07-20T04:26:27.210Z,979.8
2018-07-20T04:27:28.405Z,979.8
2018-07-20T04:28:29.613Z,979.9
2018-07-20T04:29:30.763Z,979.8
2018-07-20T04:30:31.916Z,979.8
2018-07-20T04:31:33.082Z,979.8
2018-07-20T04:32:34.240Z,979.8
2018-07-20T04:33:35.987Z,979.8
2018-07-20T04:34:37.171Z,979.9
2018-07-20T04:35:38.554Z,979.9
2018-07-20T04:36:39.701Z,979.9
2018-07-20T04:37:40.854Z,979.9
2018-07-20T04:38:42.050Z,979.7
2018-07-20T04:39:43.229Z,979.9
2018-07-20T04:40:44.405Z,979.8
2018-07-20T04:41:45.567Z,979.8
2018-07-20T04:42:46.730Z,979.9
2018-07-20T04:43:47.936Z,979.9
2018-07-20T04:44:51.485Z,979.9
2018-07-20T04:45:52.678Z,979.9
2018-07-20T04:46:53.838Z,979.9
2018-07-20T04:47:55.002Z,979.8
2018-07-20T04:48:56.743Z,979.8
2018-07-20T04:49:57.924Z,979.8
2018-07-20T04:50:59.093Z,979.8
2018-07-20T04:52:00.277Z,979.8
2018-07-20T04:53:03.496Z,979.8
2018-07-20T04:54:04.720Z,979.8
2018-07-20T04:55:05.912Z,979.6
2018-07-20T04:56:07.094Z,979.7
2018-07-20T04:57:09.110Z,979.7
2018-07-20T04:58:10.278Z,979.7
2018-07-20T04:59:11.454Z,979.7
2018-07-20T05:00:12.676Z,979.7
2018-07-20T05:01:13.814Z,979.6
2018-07-20T05:02:14.981Z,979.6
2018-07-20T05:03:16.156Z,979.6
2018-07-20T05:04:17.886Z,979.7
2018-07-20T05:05:19.078Z,979.6
2018-07-20T05:06:22.885Z,979.7
2018-07-20T05:07:24.088Z,979.6
2018-07-20T05:08:25.248Z,979.6
2018-07-20T05:09:26.548Z,979.6
2018-07-20T05:10:27.694Z,979.6
2018-07-20T05:11:28.884Z,979.6
2018-07-20T05:12:30.098Z,979.5
2018-07-20T05:13:31.297Z,979.6
2018-07-20T05:14:32.506Z,979.6
2018-07-20T05:15:33.655Z,979.6
2018-07-20T05:16:34.941Z,979.6
2018-07-20T05:17:36.238Z,979.6
2018-07-20T05:18:37.438Z,979.5
2018-07-20T05:19:39.710Z,979.6
2018-07-20T05:20:43.259Z,979.6
2018-07-20T05:21:44.454Z,979.6
2018-07-20T05:22:47.803Z,979.5
2018-07-20T05:23:48.938Z,979.6
2018-07-20T05:24:58.290Z,979.5
2018-07-20T05:25:59.464Z,979.5
2018-07-20T05:27:02.848Z,979.3
2018-07-20T05:28:09.619Z,979.5
2018-07-20T05:29:10.775Z,979.5
2018-07-20T05:30:11.997Z,979.5
2018-07-20T05:31:14.765Z,979.5
2018-07-20T05:32:15.954Z,979.5
2018-07-20T05:33:19.405Z,979.5
2018-07-20T05:34:20.802Z,979.5
2018-07-20T05:35:25.598Z,979.4
2018-07-20T05:36:26.847Z,979.5
2018-07-20T05:37:29.741Z,979.4
2018-07-20T05:38:32.188Z,979.4
2018-07-20T05:39:33.408Z,979.5
2018-07-20T05:40:34.716Z,979.4
2018-07-20T05:41:35.934Z,979.4
2018-07-20T05:42:37.336Z,979.4
2018-07-20T05:43:38.483Z,979.4
2018-07-20T05:44:42.139Z,979.4
2018-07-20T05:45:43.403Z,979.4
2018-07-20T05:46:44.847Z,979.1
2018-07-20T05:47:47.049Z,979.3
2018-07-20T05:48:48.227Z,979.4
2018-07-20T05:49:50.418Z,979.3
2018-07-20T05:50:52.504Z,979.3
2018-07-20T05:51:53.679Z,979.4
2018-07-20T05:52:54.867Z,979.4
2018-07-20T05:53:58.149Z,979.7
2018-07-20T05:54:59.301Z,980.3
2018-07-20T05:56:00.515Z,979.7
2018-07-20T05:57:01.750Z,979.1
2018-07-20T05:58:13.024Z,979.8
2018-07-20T05:59:14.234Z,980.1
2018-07-20T06:00:15.501Z,980
2018-07-20T06:01:16.783Z,980.3
2018-07-20T06:02:17.974Z,980.7
2018-07-20T06:03:19.184Z,979.4
2018-07-20T06:04:20.370Z,979.7
2018-07-20T06:05:21.587Z,980.1
2018-07-20T06:06:23.727Z,979.7
2018-07-20T06:07:25.661Z,979.4
2018-07-20T06:08:26.882Z,980
2018-07-20T06:09:28.362Z,979.8
2018-07-20T06:10:29.550Z,979.4
2018-07-20T06:11:30.754Z,979.7
2018-07-20T06:12:31.941Z,979.6
2018-07-20T06:13:33.100Z,979.3
2018-07-20T06:14:34.271Z,979.7
2018-07-20T06:15:35.507Z,979.8
2018-07-20T06:16:36.767Z,980.1
2018-07-20T06:17:38.197Z,980
2018-07-20T06:18:40.434Z,979.6
2018-07-20T06:19:41.638Z,979.2
2018-07-20T06:20:42.813Z,979.2
2018-07-20T06:21:43.999Z,979.6
2018-07-20T06:22:46.434Z,979.5
2018-07-20T06:23:50.176Z,980.1
2018-07-20T06:24:51.260Z,979.4
2018-07-20T06:25:52.439Z,980.1
2018-07-20T06:26:53.676Z,980.1
2018-07-20T06:27:54.908Z,980
2018-07-20T06:28:56.132Z,980.1
2018-07-20T06:29:57.330Z,979.3
2018-07-20T06:30:58.542Z,980.2
2018-07-20T06:32:01.931Z,979.2
2018-07-20T06:33:03.251Z,979.2
2018-07-20T06:34:04.440Z,980.5
2018-07-20T06:35:06.207Z,980.1
2018-07-20T06:36:07.485Z,979.3
2018-07-20T06:37:08.916Z,979.2
2018-07-20T06:38:10.202Z,979.1
2018-07-20T06:39:11.412Z,979.3
2018-07-20T06:40:12.818Z,979.8
2018-07-20T06:41:14.008Z,979
2018-07-20T06:42:19.180Z,979.1
2018-07-20T06:43:20.328Z,979.2
2018-07-20T06:44:25.241Z,979.2
2018-07-20T06:45:27.382Z,979.2
2018-07-20T06:46:28.550Z,979.3
2018-07-20T06:47:29.777Z,979.2
2018-07-20T06:48:31.896Z,979.2
2018-07-20T06:49:35.278Z,979.3
2018-07-20T06:50:36.623Z,979.2
2018-07-20T06:51:37.810Z,979.2
2018-07-20T06:52:40.491Z,979.2
2018-07-20T06:53:41.658Z,979.2
2018-07-20T06:54:42.805Z,979.3
2018-07-20T06:55:43.982Z,979.2
2018-07-20T06:56:45.175Z,979.2
2018-07-20T06:57:46.417Z,979.2
2018-07-20T06:58:47.818Z,979.2
2018-07-20T06:59:49.451Z,979.3
2018-07-20T07:00:53.271Z,979.2
2018-07-20T07:01:54.429Z,980.1
2018-07-20T07:02:55.642Z,979.6
2018-07-20T07:03:58.801Z,979.2
2018-07-20T07:05:02.962Z,979.4
2018-07-20T07:06:04.134Z,979.2
2018-07-20T07:07:05.285Z,979.2
2018-07-20T07:08:06.578Z,979.2
2018-07-20T07:09:14.483Z,979.2
2018-07-20T07:10:15.853Z,979.1
2018-07-20T07:11:17.249Z,979.3
2018-07-20T07:12:18.452Z,979.5
2018-07-20T07:13:19.746Z,979.3
2018-07-20T07:14:20.978Z,980.2
2018-07-20T07:15:22.181Z,979.8
2018-07-20T07:16:23.340Z,979.5
2018-07-20T07:17:24.514Z,979.2
2018-07-20T07:18:25.715Z,979.6
2018-07-20T07:19:26.887Z,979.6
2018-07-20T07:20:30.507Z,979.5
2018-07-20T07:21:34.106Z,979.4
2018-07-20T07:22:37.646Z,979.8
2018-07-20T07:23:39.002Z,979.7
2018-07-20T07:24:41.151Z,979.8
2018-07-20T07:25:42.318Z,979.9
2018-07-20T07:26:44.823Z,980.1
2018-07-20T07:27:46.583Z,981.3
2018-07-20T07:28:47.970Z,980.8
2018-07-20T07:29:49.727Z,981.5
2018-07-20T07:30:53.396Z,980.6
2018-07-20T07:31:56.750Z,979.7
2018-07-20T07:33:12.207Z,979.3
2018-07-20T07:34:13.677Z,979.6
2018-07-20T07:35:15.770Z,979.6
2018-07-20T07:36:21.816Z,979.3
2018-07-20T07:37:23.035Z,979.2
2018-07-20T07:38:24.257Z,979.2
2018-07-20T07:39:26.318Z,979.2
2018-07-20T07:40:27.819Z,979.1
2018-07-20T07:41:30.216Z,979.6
2018-07-20T07:42:31.630Z,979.5
2018-07-20T07:43:37.348Z,981.3
2018-07-20T07:44:38.543Z,980.3
2018-07-20T07:45:39.839Z,980.9
2018-07-20T07:46:41.240Z,980
2018-07-20T07:47:43.399Z,979.4
2018-07-20T07:48:44.584Z,980.6
2018-07-20T07:49:45.815Z,979.3
2018-07-20T07:50:46.997Z,979.7
2018-07-20T07:51:49.194Z,979.7
2018-07-20T07:52:51.643Z,979.8
2018-07-20T07:53:52.892Z,980.7
2018-07-20T07:54:54.268Z,980.6
2018-07-20T07:55:55.635Z,980.7
2018-07-20T07:56:57.380Z,980.4
2018-07-20T07:58:01.375Z,980.3
2018-07-20T07:59:02.859Z,980.5
2018-07-20T08:00:07.220Z,980.1
2018-07-20T08:01:08.373Z,979.5
2018-07-20T08:02:09.707Z,979.9
2018-07-20T08:03:10.999Z,979.3
2018-07-20T08:04:12.163Z,979.1
2018-07-20T08:05:13.380Z,979.6
2018-07-20T08:06:17.512Z,979.8
2018-07-20T08:07:18.726Z,979.5
2018-07-20T08:08:20.195Z,979.9
2018-07-20T08:09:23.199Z,980.8
2018-07-20T08:10:24.800Z,979.9
2018-07-20T08:11:26.809Z,981.1
2018-07-20T08:12:28.210Z,980.9
2018-07-20T08:13:29.371Z,979.5
2018-07-20T08:14:30.568Z,980.6
2018-07-20T08:15:31.823Z,980.2
2018-07-20T08:16:35.355Z,980.7
2018-07-20T08:17:36.575Z,981
2018-07-20T08:18:37.766Z,980.3
2018-07-20T08:19:38.982Z,980.6
2018-07-20T08:20:40.254Z,979.8
2018-07-20T08:21:41.643Z,981.5
2018-07-20T08:22:42.891Z,981.2
2018-07-20T08:23:44.054Z,980.7
2018-07-20T08:24:47.335Z,979.8
2018-07-20T08:25:48.638Z,979.4
2018-07-20T08:26:49.795Z,981.4
2018-07-20T08:27:50.971Z,982
2018-07-20T08:28:52.162Z,980
2018-07-20T08:29:53.347Z,981
2018-07-20T08:30:54.546Z,980.2
2018-07-20T08:32:01.036Z,979.5
2018-07-20T08:33:04.430Z,980.4
2018-07-20T08:34:05.597Z,980.6
2018-07-20T08:35:06.790Z,979.9
2018-07-20T08:36:08.126Z,979.3
2018-07-20T08:37:12.877Z,980.3
2018-07-20T08:38:15.315Z,980.8
2018-07-20T08:39:16.779Z,981.3
2018-07-20T08:40:18.227Z,980.7
2018-07-20T08:41:19.568Z,980.4
2018-07-20T08:42:25.133Z,979.8
2018-07-20T08:43:26.363Z,980.3
2018-07-20T08:44:27.637Z,979.8
2018-07-20T08:45:28.851Z,979.2
2018-07-20T08:46:30.083Z,980.3
2018-07-20T08:47:31.332Z,979.3
2018-07-20T08:48:35.533Z,979.4
2018-07-20T08:49:41.088Z,978.9
2018-07-20T08:50:43.129Z,979.2
2018-07-20T08:51:48.149Z,979.8
2018-07-20T08:52:49.793Z,979.2
2018-07-20T08:53:55.355Z,979.8
2018-07-20T08:54:57.090Z,981.1
2018-07-20T08:55:58.362Z,980.3
2018-07-20T08:57:01.873Z,980.3
2018-07-20T08:58:06.495Z,980.9
2018-07-20T08:59:12.588Z,980.6
2018-07-20T09:00:13.786Z,979.4
2018-07-20T09:01:19.287Z,979.1
2018-07-20T09:02:20.467Z,978.7
2018-07-20T09:03:24.028Z,978.8
2018-07-20T09:04:27.606Z,978.8
2018-07-20T09:05:28.783Z,978.8
2018-07-20T09:06:46.497Z,978.7
2018-07-20T09:07:49.910Z,978.8
2018-07-20T09:08:58.374Z,979.6
2018-07-20T09:10:03.103Z,979.8
2018-07-20T09:11:04.279Z,980.4
2018-07-20T09:12:06.826Z,980.5
2018-07-20T09:13:10.893Z,980.5
2018-07-20T09:14:13.150Z,980.5
2018-07-20T09:15:14.501Z,980.9
2018-07-20T09:16:15.679Z,979.5
2018-07-20T09:17:16.856Z,979.2
2018-07-20T09:18:25.944Z,979.4
2018-07-20T09:19:27.346Z,979.4
2018-07-20T09:20:29.289Z,980.1
2018-07-20T09:21:30.635Z,980.3
2018-07-20T09:22:33.805Z,980.2
2018-07-20T09:23:35.115Z,979
2018-07-20T09:24:36.300Z,978.8
2018-07-20T09:25:37.716Z,978.6
2018-07-20T09:26:39.213Z,978.7
2018-07-20T09:27:40.412Z,979.3
2018-07-20T09:28:46.354Z,979.5
2018-07-20T09:29:47.748Z,978.8
2018-07-20T09:30:49.009Z,979.9
2018-07-20T09:31:50.254Z,978.7
2018-07-20T09:32:51.472Z,978.9
2018-07-20T09:33:52.705Z,979.6
2018-07-20T09:34:55.982Z,979.3
2018-07-20T09:35:57.230Z,979.5
2018-07-20T09:36:58.443Z,979.7
2018-07-20T09:37:59.756Z,979
2018-07-20T09:39:01.499Z,978.7
2018-07-20T09:40:02.815Z,978.8
2018-07-20T09:41:05.037Z,978.8
2018-07-20T09:42:06.317Z,979.2
2018-07-20T09:43:07.543Z,979.9
2018-07-20T09:44:08.818Z,979.1
2018-07-20T09:45:10.020Z,978.8
2018-07-20T09:46:11.357Z,979.1
2018-07-20T09:47:12.828Z,979.2
2018-07-20T09:48:16.884Z,979.3
2018-07-20T09:49:23.881Z,979.9
2018-07-20T09:50:27.459Z,980.3
2018-07-20T09:51:28.668Z,979.5
2018-07-20T09:52:29.842Z,979
2018-07-20T09:53:31.273Z,978.6
2018-07-20T09:54:32.525Z,978.6
2018-07-20T09:55:33.719Z,978.9
2018-07-20T09:56:36.168Z,978.6
2018-07-20T09:57:43.200Z,978.4
2018-07-20T09:58:44.447Z,978.7
2018-07-20T09:59:45.906Z,978.7
2018-07-20T10:00:49.457Z,978.8
2018-07-20T10:01:50.599Z,978.9
2018-07-20T10:02:51.815Z,978.9
2018-07-20T10:03:53.010Z,978.9
2018-07-20T10:04:54.329Z,979.3
2018-07-20T10:05:56.885Z,978.9
2018-07-20T10:07:00.515Z,979.1
2018-07-20T10:08:01.783Z,978.7
2018-07-20T10:09:04.691Z,979
2018-07-20T10:10:07.151Z,979.3
2018-07-20T10:11:08.423Z,979.7
2018-07-20T10:12:09.595Z,979
2018-07-20T10:13:13.472Z,978.7
2018-07-20T10:14:15.677Z,978.7
2018-07-20T10:15:17.773Z,978.6
2018-07-20T10:16:20.627Z,978.7
2018-07-20T10:17:21.778Z,978.5
2018-07-20T10:18:22.968Z,978.4
2018-07-20T10:19:27.632Z,978.5
2018-07-20T10:20:28.977Z,978.4
2018-07-20T10:21:33.371Z,978.5
2018-07-20T10:22:36.411Z,978.5
2018-07-20T10:23:37.636Z,978.9
2018-07-20T10:24:38.814Z,979
2018-07-20T10:25:40.093Z,979
2018-07-20T10:26:42.844Z,978.5
2018-07-20T10:28:45.115Z,978.3
2018-07-20T10:29:53.867Z,978.3
2018-07-20T10:30:56.087Z,978.3
2018-07-20T10:31:57.255Z,978.3
2018-07-20T10:32:58.641Z,978.2
2018-07-20T10:33:59.865Z,978.8
2018-07-20T10:35:01.317Z,978.4
2018-07-20T10:36:02.566Z,978.2
2018-07-20T10:37:08.751Z,978.2
2018-07-20T10:38:11.199Z,978.2
2018-07-20T10:39:12.424Z,978.3
2018-07-20T10:40:13.657Z,978.1
2018-07-20T10:41:19.728Z,978.1
2018-07-20T10:42:20.914Z,978.1
2018-07-20T10:43:22.106Z,978
2018-07-20T10:44:24.031Z,978.1
2018-07-20T10:45:25.226Z,978.1
2018-07-20T10:46:26.615Z,978.1
2018-07-20T10:47:27.849Z,978.1
2018-07-20T10:48:29.043Z,978.1
2018-07-20T10:49:30.364Z,978.1
2018-07-20T10:50:31.539Z,978.1
2018-07-20T10:51:32.777Z,978.2
2018-07-20T10:52:42.725Z,978.2
2018-07-20T10:53:45.298Z,978.1
2018-07-20T10:54:46.742Z,978.3
2018-07-20T10:55:48.281Z,978.1
2018-07-20T10:56:53.430Z,978.1
2018-07-20T10:57:54.594Z,978.2
2018-07-20T10:58:56.122Z,978.1
2018-07-20T10:59:57.334Z,978
2018-07-20T11:00:58.636Z,978.1
2018-07-20T11:02:01.890Z,978
2018-07-20T11:03:06.656Z,978
2018-07-20T11:04:08.484Z,977.9
2018-07-20T11:05:18.885Z,978.1
2018-07-20T11:06:21.083Z,978.1
2018-07-20T11:07:23.437Z,978.1
2018-07-20T11:08:24.634Z,978.1
2018-07-20T11:09:25.818Z,978
2018-07-20T11:10:30.637Z,978
2018-07-20T11:11:34.302Z,978.1
2018-07-20T11:12:38.422Z,978.1
2018-07-20T11:13:39.640Z,978
2018-07-20T11:14:43.249Z,978
2018-07-20T11:15:46.881Z,978
2018-07-20T11:16:51.862Z,977.9
2018-07-20T11:17:54.267Z,978
2018-07-20T11:18:55.730Z,978
2018-07-20T11:19:59.366Z,978
2018-07-20T11:21:00.819Z,977.9
2018-07-20T11:22:08.710Z,978
2018-07-20T11:23:12.631Z,978
2018-07-20T11:24:18.519Z,977.9
2018-07-20T11:25:19.704Z,978
2018-07-20T11:26:22.832Z,977.8
2018-07-20T11:27:30.463Z,977.9
2018-07-20T11:28:33.858Z,977.8
2018-07-20T11:29:42.672Z,977.9
2018-07-20T11:30:49.848Z,977.9
2018-07-20T11:31:58.440Z,977.9
2018-07-20T11:32:59.673Z,978
2018-07-20T11:34:04.118Z,977.9
2018-07-20T11:35:15.787Z,977.8
2018-07-20T11:36:19.067Z,977.9
2018-07-20T11:37:22.455Z,977.9
2018-07-20T11:38:23.856Z,977.9
2018-07-20T11:39:30.199Z,977.9
2018-07-20T11:40:31.504Z,977.8
2018-07-20T11:41:34.943Z,977.8
2018-07-20T11:42:36.173Z,977.9
2018-07-20T11:43:37.553Z,977.8
2018-07-20T11:44:39.813Z,977.9
2018-07-20T11:45:41.258Z,977.8
2018-07-20T11:46:42.658Z,977.8
2018-07-20T11:47:43.854Z,977.7
2018-07-20T11:48:47.903Z,977.9
2018-07-20T11:49:49.260Z,977.9
2018-07-20T11:50:50.430Z,977.9
2018-07-20T11:51:54.093Z,977.8
2018-07-20T11:52:59.947Z,977.9
2018-07-20T11:54:04.584Z,978
2018-07-20T11:55:05.880Z,978
2018-07-20T11:56:07.301Z,978
2018-07-20T11:57:08.787Z,977.9
2018-07-20T11:58:10.189Z,977.7
2018-07-20T11:59:12.458Z,978
2018-07-20T12:00:16.556Z,977.6
2018-07-20T12:01:17.756Z,977.9
2018-07-20T12:02:19.125Z,977.8
2018-07-20T12:03:20.383Z,977.7
2018-07-20T12:04:21.876Z,977.8
2018-07-20T12:05:25.226Z,977.8
2018-07-20T12:06:26.430Z,977.9
2018-07-20T12:07:29.835Z,977.8
2018-07-20T12:08:31.018Z,977.7
2018-07-20T12:09:34.562Z,977.9
2018-07-20T12:10:35.850Z,977.8
2018-07-20T12:11:37.030Z,977.8
2018-07-20T12:12:38.278Z,977.8
2018-07-20T12:13:39.461Z,977.8
2018-07-20T12:14:43.049Z,977.8
2018-07-20T12:15:44.262Z,977.7
2018-07-20T12:16:45.419Z,977.8
2018-07-20T12:17:46.853Z,977.8
2018-07-20T12:18:48.010Z,977.7
2018-07-20T12:19:49.365Z,977.7
2018-07-20T12:20:50.859Z,977.6
2018-07-20T12:21:59.575Z,977.7
2018-07-20T12:23:02.494Z,977.7
2018-07-20T12:24:06.264Z,977.7
2018-07-20T12:25:08.589Z,977.7
2018-07-20T12:26:09.983Z,977.7
2018-07-20T12:27:11.428Z,977.6
2018-07-20T12:28:12.879Z,977.7
2018-07-20T12:29:17.248Z,977.7
2018-07-20T12:30:18.585Z,977.7
2018-07-20T12:31:19.832Z,977.7
2018-07-20T12:32:22.023Z,977.7
2018-07-20T12:33:36.486Z,977.5
2018-07-20T12:34:40.075Z,977.6
2018-07-20T12:35:44.322Z,977.6
2018-07-20T12:36:47.059Z,977.7
2018-07-20T12:37:48.299Z,977.7
2018-07-20T12:38:53.717Z,977.7
2018-07-20T12:39:57.356Z,977.6
2018-07-20T12:40:58.949Z,977.7
2018-07-20T12:42:02.608Z,977.6
2018-07-20T12:43:06.290Z,977.6
2018-07-20T12:44:07.558Z,977.6
2018-07-20T12:45:08.956Z,977.6
2018-07-20T12:46:11.380Z,977.6
2018-07-20T12:47:12.736Z,977.6
2018-07-20T12:48:17.746Z,977.6
2018-07-20T12:49:19.849Z,977.6
2018-07-20T12:50:21.437Z,977.7
2018-07-20T12:51:22.659Z,977.6
2018-07-20T12:52:24.299Z,977.5
2018-07-20T12:53:27.672Z,977.6
2018-07-20T12:54:29.144Z,977.5
2018-07-20T12:55:30.543Z,977.5
2018-07-20T12:56:32.191Z,977.5
2018-07-20T12:57:33.641Z,977.5
2018-07-20T12:58:36.474Z,977.5
2018-07-20T12:59:37.769Z,977.4
2018-07-20T13:00:39.050Z,977.5
2018-07-20T13:01:40.285Z,977.5
2018-07-20T13:02:45.858Z,977.5
2018-07-20T13:03:47.795Z,977.5
2018-07-20T13:04:49.254Z,977.5
2018-07-20T13:05:50.478Z,977.5
2018-07-20T13:06:51.740Z,977.6
2018-07-20T13:07:55.351Z,977.4
2018-07-20T13:08:56.864Z,977.5
2018-07-20T13:09:58.319Z,977.4
2018-07-20T13:10:59.617Z,977.5
2018-07-20T13:12:12.333Z,977.5
2018-07-20T13:13:13.664Z,977.4
2018-07-20T13:14:16.126Z,977.4
2018-07-20T13:15:17.447Z,977.3
2018-07-20T13:16:33.868Z,977.5
2018-07-20T13:17:35.392Z,977.5
2018-07-20T13:18:36.674Z,977.4
2018-07-20T13:19:37.906Z,977.3
2018-07-20T13:20:39.447Z,977.3
2018-07-20T13:21:45.661Z,977.3
2018-07-20T13:23:03.512Z,977.2
2018-07-20T13:24:04.821Z,977.3